Terminal Aerodrome Forecast
Issued by NWS

Home | Current Version | Previous Version | Text Only | Print | Product List | Glossary On
Versions: 1 2 3 4 5 6 7 8 9 10 11 12 13 14 15 16 17 18 19 20 21 22 23 24 25 26 27 28 29 30
000
FTUS46 KSEW 290500
TAFSEA
TAF
KSEA 290539Z 2906/3012 20010KT P6SM VCSH BKN025 OVC035
     FM291200 35008KT P6SM -SHSN BKN020 BKN040
     FM291800 02012G20KT P6SM SCT040
     FM300000 03010KT P6SM SKC=

USA.gov is the U.S. government's official web portal to all federal, state and local government web resources and services.